Flight Track Log - Related Links

Times and Time Zones

All times are in EDT time to prevent confusion due to time zone crossing. See the AWE770 flight status page for this flight to view local times or setup timezone preferences in your user account.

Time Position Orientation Groundspeed Altitude Reporting Facility
EDT Latitude Longitude Course Direction KTS MPH feet Rate Location/Type
Sat 08:06:12 AM 39.8667 -75.2833 99° East 176 203 900  Level Philadelphia TRACON
Sat 08:07:06 AM 39.8333 -75.3333 241° Southwest 192 221 2,100 1,526 Climbing Philadelphia TRACON
Sat 08:08:06 AM 39.7833 -75.3833 218° Southwest 260 299 3,800 2,200 Climbing Philadelphia TRACON
Sat 08:09:00 AM 39.3681 -75.3406 185° South  Level FlightAware
Sat 08:09:06 AM 39.7167 -75.4333 210° Southwest 276 318 6,500  Level Philadelphia TRACON
Sat 08:10:00 AM 39.2413 -75.3640 194° South  Level FlightAware
Sat 08:10:12 AM 39.6167 -75.4167 173° South 299 344 8,700  Level Philadelphia TRACON
Sat 08:11:00 AM 39.1239 -75.2968 99° East  Level Estimated
Sat 08:11:21 AM 39.5469 -75.4078 174° South 297 342 10,800  Level Washington Center
Sat 08:12:24 AM 39.4372 -75.3981 176° South 338 389 12,000 1,258 Climbing Washington Center
Sat 08:13:25 AM 39.3333 -75.3903 177° South 367 422 13,400 1,426 Climbing Washington Center
Sat 08:14:26 AM 39.2292 -75.3672 170° South 386 444 14,900 1,440 Climbing Washington Center
Sat 08:15:30 AM 39.1811 -75.2458 117° Southeast 406 467 16,400 1,296 Climbing Washington Center
Sat 08:16:31 AM 39.1542 -75.1044 104° East 409 471 17,600 984 Climbing Washington Center
Sat 08:17:32 AM 39.1258 -74.9597 104° East 418 481 18,400 960 Climbing Washington Center
Sat 08:18:36 AM 39.0844 -74.7808 107° East 439 505 19,600 1,104 Climbing Washington Center
Sat 08:19:37 AM 39.0197 -74.6475 122° Southeast 442 509 20,700 1,091 Climbing Washington Center
Sat 08:20:37 AM 38.9544 -74.5122 122° Southeast 447 514 21,800 1,016 Climbing Washington Center
Sat 08:21:41 AM 38.8864 -74.3761 123° Southeast 451 519 22,800 960 Climbing Washington Center
Sat 08:22:42 AM 38.8192 -74.2369 122° Southeast 455 524 23,800 934 Climbing Washington Center
Sat 08:23:43 AM 38.7500 -74.1006 123° Southeast 457 526 24,700 816 Climbing Washington Center
Sat 08:24:47 AM 38.6636 -73.9336 123° Southeast 467 537 25,500 810 Climbing Washington Center
Sat 08:25:49 AM 38.5881 -73.7975 125° Southeast 469 540 26,400 829 Climbing Washington Center
Sat 08:26:50 AM 38.5125 -73.6589 125° Southeast 472 543 27,200 765 Climbing Washington Center
Sat 08:27:31 AM 38.4625 -73.5733 127° Southeast 473 544 27,700 588 Climbing New Center
Sat 08:28:32 AM 38.3844 -73.4353 126° Southeast 473 544 28,200 545 Climbing New Center
Sat 08:29:32 AM 38.3083 -73.2947 125° Southeast 478 550 28,800 1,017 Climbing New Center
Sat 08:30:30 AM 38.2278 -73.1597 127° Southeast 483 556 30,200 1,017 Climbing New Center
Sat 08:31:30 AM 38.1492 -73.0253 127° Southeast 478 550 30,800 595 Climbing New Center
Sat 08:32:31 AM 38.0703 -72.8908 127° Southeast 478 550 31,400 600 Climbing New Center
Sat 08:33:30 AM 37.9956 -72.7517 124° Southeast 478 550 32,000 750 Climbing New Center
Sat 08:34:31 AM 37.9186 -72.6125 125° Southeast 485 558 32,900 738 Climbing New Center
Sat 08:35:32 AM 37.8436 -72.4792 125° Southeast 480 552 33,500 605 Climbing New Center
Sat 08:36:30 AM 37.7619 -72.3511 129° Southeast 474 545 34,100 667 Climbing New Center
Sat 08:37:29 AM 37.6886 -72.2053 122° Southeast 474 545 34,800 450 Climbing New Center
Sat 08:38:30 AM 37.6214 -72.0806 124° Southeast 474 545 35,000 98 Climbing New Center
Sat 08:39:32 AM 37.5372 -71.9456 128° Southeast 468 539 35,000  Level New Center
Sat 08:40:32 AM 37.4489 -71.8211 132° Southeast 468 539 35,000  Level New Center
Sat 08:42:26 AM 37.4000 -71.7000 176° South 486 559 35,000  Level New Oceanic
Sat 08:58:21 AM 35.6333 -71.5333 168° South 477 549 35,000  Level New Oceanic
Sat 09:10:11 AM 33.6833 -71.0333 169° South 464 534 35,000  Level New Oceanic
Sat 09:36:36 AM 30.4000 -70.2667 169° South 478 550 35,000  Level New Oceanic
Sat 10:05:34 AM 26.7167 -69.4500 170° South 449 517 35,000  Level New Oceanic
Sat 10:18:51 AM 24.7986 -69.0442 167° South 471 542 35,000  Level Miami Center
Sat 10:19:00 AM 24.7521 -69.0384 167° South 449 517 35,000  Level FlightAware
Sat 10:19:53 AM 24.6467 -69.0044 167° South 466 536 35,000  Level Miami Center
Sat 10:20:00 AM 24.6282 -69.0077 167° South 449 517 35,000  Level FlightAware
Sat 10:20:56 AM 24.5203 -68.9700 166° South 466 536 35,000  Level Miami Center
Sat 10:21:00 AM 24.5043 -68.9770 167° South 449 517 35,000  Level FlightAware
Sat 10:21:58 AM 24.3928 -68.9358 166° South 466 536 35,000  Level Miami Center
Sat 10:22:00 AM 24.3803 -68.9464 167° South 449 517 35,000  Level FlightAware
Sat 10:23:00 AM 24.2564 -68.9159 167° South 449 517 35,000  Level FlightAware
Sat 10:23:00 AM 24.2683 -68.9036 167° South 466 536 35,000  Level Miami Center
Sat 10:24:00 AM 24.1324 -68.8854 167° South 449 517 35,000  Level FlightAware
Sat 10:24:02 AM 24.1422 -68.8706 167° South 466 536 35,000  Level Miami Center
Sat 10:25:04 AM 24.0192 -68.8383 167° South 463 533 35,000  Level Miami Center
Sat 10:26:06 AM 23.8717 -68.7989 166° South 458 527 35,000  Level Miami Center
Sat 10:27:08 AM 23.7514 -68.7678 167° South 454 522 35,000  Level Miami Center
Sat 10:28:10 AM 23.6281 -68.7350 166° South 454 522 35,000  Level Miami Center
Sat 10:29:12 AM 23.5047 -68.7022 166° South 453 521 35,000  Level Miami Center
Sat 10:30:14 AM 23.3844 -68.6731 167° South 453 521 35,000  Level Miami Center
Sat 10:31:16 AM 23.2636 -68.6428 167° South 450 518 35,000  Level Miami Center
Sat 10:32:19 AM 23.1428 -68.6106 166° South 450 518 35,000  Level Miami Center
Sat 10:33:21 AM 22.9983 -68.5736 167° South 448 516 35,000  Level Miami Center
Sat 10:34:23 AM 22.8786 -68.5425 167° South 448 516 35,000  Level Miami Center
Sat 10:35:25 AM 22.7603 -68.5122 167° South 443 510 35,000  Level Miami Center
Sat 10:36:27 AM 22.6419 -68.4831 167° South 442 509 35,000  Level Miami Center
Sat 10:37:29 AM 22.5231 -68.4528 167° South 441 507 35,000  Level Miami Center
Sat 10:38:31 AM 22.4036 -68.4219 167° South 441 507 35,000  Level Miami Center
Sat 10:39:33 AM 22.2589 -68.3844 167° South 441 507 35,000  Level Miami Center
Sat 10:40:35 AM 22.1383 -68.3550 167° South 441 507 35,000  Level Miami Center
Sat 10:41:37 AM 22.0175 -68.3239 167° South 441 507 35,000  Level Miami Center
Sat 10:42:39 AM 21.8975 -68.2947 167° South 441 507 35,000  Level Miami Center
Sat 10:43:41 AM 21.7789 -68.2642 167° South 441 507 35,000 48 Level Miami Center
Sat 10:44:44 AM 21.6572 -68.2336 167° South 441 507 35,100 -48 Climbing Miami Center
Sat 10:45:46 AM 21.5106 -68.1975 167° South 441 507 34,900 -48 Descending Miami Center
Sat 10:46:48 AM 21.3922 -68.1686 167° South 441 507 35,000 48 Climbing Miami Center
Sat 10:47:50 AM 21.2758 -68.1400 167° South 440 506 35,000  Level Miami Center
Sat 10:48:52 AM 21.1628 -68.1122 167° South 432 497 35,000  Level Miami Center
Sat 10:49:54 AM 21.0478 -68.0833 167° South 428 493 35,000  Level Miami Center
Sat 10:50:55 AM 20.9294 -68.0528 166° South 428 493 35,000  Level Miami Center
Sat 10:51:57 AM 20.8094 -68.0233 167° South 429 494 35,000  Level Miami Center
Sat 10:52:59 AM 20.6633 -67.9864 167° South 437 503 35,000  Level Miami Center
Sat 10:54:01 AM 20.5433 -67.9581 168° South 437 503 35,000  Level Miami Center
Sat 10:55:03 AM 20.4214 -67.9281 167° South 439 505 35,000  Level Miami Center
Sat 10:56:05 AM 20.3014 -67.8986 167° South 440 506 35,000  Level Miami Center
Sat 10:57:07 AM 20.1781 -67.8683 167° South 441 507 35,000 -339 Level Miami Center
Sat 10:58:09 AM 20.0553 -67.8394 168° South 444 511 34,300 -1,306 Descending Miami Center
Sat 10:59:11 AM 19.9358 -67.8094 167° South 444 511 32,300 -1,597 Descending Miami Center
Sat 11:00:13 AM 19.7928 -67.7722 166° South 444 511 31,000 -629 Descending Miami Center
Sat 11:01:15 AM 19.6642 -67.7425 168° South 450 518 31,000  Level Miami Center
Sat 11:02:17 AM 19.5453 -67.6956 160° South 457 526 31,000 -643 Level Miami Center
Sat 11:03:35 AM 19.4333 -67.5500 129° Southeast 450 518 29,500 -1,652 Descending San Center
Sat 11:04:35 AM 19.3667 -67.4333 121° Southeast 450 518 27,200 -2,281 Descending San Center
Sat 11:05:36 AM 19.2833 -67.3333 131° Southeast 440 506 24,900 -2,231 Descending San Center
Sat 11:06:36 AM 19.2167 -67.2333 125° Southeast 430 495 22,700 -2,083 Descending San Center
Sat 11:07:37 AM 19.1333 -67.1333 131° Southeast 410 472 20,700 -2,083 Descending San Center
Sat 11:08:37 AM 19.0667 -67.0500 130° Southeast 400 460 18,500 -2,000 Descending San Center
Sat 11:09:37 AM 19.0000 -66.9500 125° Southeast 390 449 16,700 -1,785 Descending San Center
Sat 11:10:38 AM 18.9333 -66.8667 130° Southeast 380 437 14,900 -1,785 Descending San Center
Sat 11:11:38 AM 18.8667 -66.7667 125° Southeast 370 426 13,100 -1,636 Descending San Center
Sat 11:12:39 AM 18.8167 -66.6833 122° Southeast 360 414 11,600 -1,388 Descending San Center
Sat 11:13:39 AM 18.7500 -66.6167 137° Southeast 310 357 10,300 -1,650 Descending San Center
Sat 11:14:39 AM 18.7167 -66.5333 113° Southeast 290 334 8,300 -1,900 Descending San Center
Sat 11:15:39 AM 18.6833 -66.4667 118° Southeast 280 322 6,500 -1,736 Descending San Center
Sat 11:16:40 AM 18.6500 -66.4000 118° Southeast 260 299 4,800 -1,240 Descending San Center
Sat 11:17:40 AM 18.6167 -66.3333 118° Southeast 250 288 4,000 -397 Descending San Center
Sat 11:18:41 AM 18.6167 -66.2667 90° East 240 276 4,000  Level San Center
Sat 11:19:41 AM 18.5667 -66.2333 148° Southeast 180 207 4,000 -450 Level San Center
Sat 11:20:41 AM 18.5333 -66.2167 155° Southeast 170 196 3,100 -496 Descending San Center
Sat 11:21:42 AM 18.4833 -66.2000 162° South 170 196 3,000 -198 Descending San Center
Sat 11:22:42 AM 18.4500 -66.1667 137° Southeast 160 184 2,700 -500 Descending San Center
Sat 11:23:42 AM 18.4333 -66.1167 109° East 170 196 2,000 -744 Descending San Center
Sat 11:24:43 AM 18.4333 -66.0667 90° East 150 173 1,200 -694 Descending San Center
Sat 11:25:43 AM 18.4333 -66.0333 90° East 140 161 600 -600 Descending San Center

Login

Don't have an account? Register now (free) for customized features, flight alerts, and more!